< < Back
Terminal Aerodrome Forecast


Current Version              Previous Versions:   1  2  3  4  5  6  7  8  9  

Terminal Aerodrome Forecast

550
FTUS42 KFFC 191700
TAFPDK
TAF
KPDK 191721Z 1918/2018 VRB02KT P6SM FEW250
     FM201700 20003KT P6SM FEW040 FEW250=



Latest METAR

872
SAUS70 KWBC 201300 RRC
MTRPDK
METAR KPDK 201253Z 00000KT 5SM BR CLR 11/09 A3012 RMK AO2 SLP201
T01110089


USA.gov is the U.S. government's official web portal to all federal, state and local government web resources and services.